Portada
METAR-TAF:

METAR-TAF

Aeropuertos :

Aeropuerto de Semey

Semey, Kazajistán

latitud: 50-21-05N, longitud: 080-14-04E, altitud: 232 m

Observación

El informe se hizo hace 20 minutos, a las 06:00 UTC
Viento 2 kt del este-sureste
Temperatura -12°C
Humedad 72%
Presión 1032 hPa
Visibilidad 10 km o más
sin nubes por debajo de 1500 m y sin presencia de cumulonimbus.

METAR: UASS 130600Z 11001MPS CAVOK M12/M16 Q1032 R26/85//45 NOSIG RMK QFE755/1007

Hora: 12:20 (06:20 UTC)

Pronóstico

El informe se hizo hace 1 hora y 19 minutos, a las 05:01 UTC
Pronóstico válido del 13 a las 06 UTC al 13 a las 15 UTC
Viento 4 kt con dirección variable
Visibilidad 10 km o más
Nubes dispersas a una altura de 3000 ft
Cielo nuboso a una altura de 10000 ft

TAF: UASS 130501Z 1306/1315 VRB02MPS 9999 SCT030 BKN100

Observaciones y pronósticos meteorológicos de más de 4000 aeropuertos (mensajes METAR y TAF).

Los puntos amarillos y rojos representan las estaciones disponibles.

Ponga el ratón en el punto deseado para ver el nombre de la estación.

Haga clic para ver las observaciones y los pronósticos meteorológicos.

Para cambiar el mapa : haga clic en los botones verdes con una cruz de color negro para hacer un zoom, en el botón verde con un guión para alejar o en las flechas verdes para mapas adyacentes.


METAR-TAF: